Time;durP1;ratioP1;P1;durP2;ratioP2;P2;SDS_P1;SDS_P2;PMS_P1;PMS_P2;Temp;Humidity;BMP_temperature;BMP_pressure;BME280_temperature;BME280_humidity;BME280_pressure;Samples;Min_cycle;Max_cycle;Signal;HPM_P1;HPM_P2
2022/06/29 00:00:37;;;;;;;10.34;9.48;;;;;;;22.94;69.53;100784.70;457541;116;922832;-75
2022/06/29 00:01:40;;;;;;;9.71;8.26;;;;;;;22.94;69.55;100793.05;457457;116;922629;-75
2022/06/29 00:02:44;;;;;;;9.98;8.79;;;;;;;22.95;69.64;100785.53;457489;116;922579;-76
2022/06/29 00:03:47;;;;;;;10.14;9.14;;;;;;;22.95;69.59;100786.36;457432;115;923069;-76
2022/06/29 00:04:50;;;;;;;10.40;8.73;;;;;;;22.95;69.27;100796.66;457547;115;922606;-75
2022/06/29 00:05:53;;;;;;;9.03;8.30;;;;;;;22.94;68.98;100787.48;457534;115;922618;-75
2022/06/29 00:06:56;;;;;;;10.07;9.19;;;;;;;22.94;68.76;100793.05;457499;116;922631;-76
2022/06/29 00:07:59;;;;;;;12.61;9.43;;;;;;;22.94;68.79;100795.83;457532;115;922919;-75
2022/06/29 00:09:04;;;;;;;12.06;8.89;;;;;;;22.95;68.85;100796.66;456400;115;922614;-74
2022/06/29 00:10:09;;;;;;;9.08;8.34;;;;;;;22.95;68.82;100793.88;457437;115;922909;-74
2022/06/29 00:11:13;;;;;;;9.37;8.57;;;;;;;22.95;68.81;100793.88;457273;115;930554;-74
2022/06/29 00:12:16;;;;;;;9.55;7.99;;;;;;;22.93;68.86;100794.19;457491;115;922862;-75
2022/06/29 00:13:19;;;;;;;9.30;8.51;;;;;;;22.94;68.68;100790.27;457523;115;922618;-74
2022/06/29 00:14:22;;;;;;;9.58;8.57;;;;;;;22.94;68.49;100792.20;457495;115;922685;-74
2022/06/29 00:15:25;;;;;;;8.61;7.70;;;;;;;22.94;68.36;100795.83;457521;115;922582;-75
2022/06/29 00:16:28;;;;;;;8.56;7.96;;;;;;;22.95;68.23;100793.88;457402;115;922549;-75
2022/06/29 00:17:32;;;;;;;11.64;8.36;;;;;;;22.96;68.22;100792.76;457564;116;922592;-74
2022/06/29 00:18:35;;;;;;;9.34;8.12;;;;;;;22.96;68.19;100787.20;457479;115;922921;-74
2022/06/29 00:19:39;;;;;;;8.23;7.54;;;;;;;22.96;68.19;100790.81;457447;115;930966;-74
2022/06/29 00:20:42;;;;;;;9.18;8.24;;;;;;;22.96;68.28;100787.20;457450;115;922577;-75
2022/06/29 00:21:45;;;;;;;11.81;8.38;;;;;;;22.96;68.32;100784.41;457524;115;922837;-75
2022/06/29 00:22:48;;;;;;;9.36;8.53;;;;;;;22.95;68.33;100788.31;457528;115;923268;-75
2022/06/29 00:23:51;;;;;;;11.45;8.49;;;;;;;22.95;68.35;100785.53;457437;116;922653;-75
2022/06/29 00:24:54;;;;;;;8.98;8.23;;;;;;;22.94;68.39;100779.14;455789;116;922614;-74
2022/06/29 00:25:57;;;;;;;8.56;7.78;;;;;;;22.94;68.42;100787.48;449743;117;922758;-75
2022/06/29 00:27:02;;;;;;;8.46;7.83;;;;;;;22.94;68.40;100783.87;449688;117;923102;-75
2022/06/29 00:28:06;;;;;;;8.88;8.02;;;;;;;22.93;68.39;100782.23;449581;117;930454;-75
2022/06/29 00:29:09;;;;;;;8.49;7.78;;;;;;;22.92;68.38;100792.52;449699;117;922628;-75
2022/06/29 00:30:13;;;;;;;7.71;7.21;;;;;;;22.92;68.40;100786.13;455095;116;923271;-75
2022/06/29 00:31:16;;;;;;;9.04;8.21;;;;;;;22.90;68.47;100791.14;457360;115;922795;-74
2022/06/29 00:32:20;;;;;;;8.76;7.37;;;;;;;22.90;68.56;100782.80;457345;115;930474;-75
2022/06/29 00:33:23;;;;;;;7.97;7.38;;;;;;;22.88;68.60;100782.28;457425;115;923061;-74
2022/06/29 00:34:26;;;;;;;9.28;7.58;;;;;;;22.88;68.67;100780.30;461149;115;922630;-74
2022/06/29 00:35:29;;;;;;;9.25;7.43;;;;;;;22.88;68.69;100785.06;461678;115;922591;-74
2022/06/29 00:36:32;;;;;;;8.08;7.32;;;;;;;22.87;68.71;100787.02;461583;114;923034;-75
2022/06/29 00:37:35;;;;;;;8.31;7.67;;;;;;;22.88;68.72;100788.64;461630;115;922995;-76
2022/06/29 00:38:38;;;;;;;8.14;7.43;;;;;;;22.88;68.71;100788.64;461644;114;922949;-76
2022/06/29 00:39:41;;;;;;;7.88;7.18;;;;;;;22.88;68.65;100785.86;461697;115;922848;-76
2022/06/29 00:40:44;;;;;;;7.71;7.07;;;;;;;22.88;68.61;100781.13;461720;115;922587;-76
2022/06/29 00:41:47;;;;;;;7.90;7.40;;;;;;;22.88;68.61;100782.28;461728;115;922533;-75
2022/06/29 00:42:50;;;;;;;7.99;7.29;;;;;;;22.88;68.60;100789.48;461695;114;922900;-75
2022/06/29 00:43:54;;;;;;;7.87;7.00;;;;;;;22.87;68.58;100784.23;461628;114;922670;-75
2022/06/29 00:44:57;;;;;;;8.83;8.00;;;;;;;22.85;68.52;100787.30;461622;114;930546;-75
2022/06/29 00:46:00;;;;;;;7.78;7.12;;;;;;;22.85;68.51;100786.46;461676;115;922568;-74
2022/06/29 00:47:05;;;;;;;9.41;7.94;;;;;;;22.83;68.54;100788.69;461699;114;923085;-75
2022/06/29 00:48:08;;;;;;;8.72;7.84;;;;;;;22.82;68.57;100789.84;461508;115;922592;-75
2022/06/29 00:49:12;;;;;;;8.63;7.81;;;;;;;22.81;68.49;100790.95;461653;115;922598;-75
2022/06/29 00:50:18;;;;;;;8.26;7.56;;;;;;;22.80;68.49;100790.13;461448;115;922908;-76
2022/06/29 00:51:22;;;;;;;7.53;6.67;;;;;;;22.81;68.56;100793.73;461466;115;922941;-75
2022/06/29 00:52:26;;;;;;;8.35;7.52;;;;;;;22.80;68.50;100792.06;461562;114;922664;-75
2022/06/29 00:53:35;;;;;;;8.03;7.32;;;;;;;22.80;68.45;100794.84;461613;115;922549;-75
2022/06/29 00:54:47;;;;;;;8.81;7.18;;;;;;;22.80;68.34;100797.62;461435;114;923092;-75
2022/06/29 00:55:51;;;;;;;8.33;7.17;;;;;;;22.80;68.32;100804.02;461479;115;923226;-75
2022/06/29 00:56:56;;;;;;;7.87;7.15;;;;;;;22.79;68.22;100802.36;461596;115;922638;-75
2022/06/29 00:58:05;;;;;;;7.16;6.62;;;;;;;22.79;68.04;100801.52;461472;115;923064;-75
2022/06/29 00:59:11;;;;;;;7.08;6.47;;;;;;;22.79;67.85;100804.30;457704;115;923131;-75
2022/06/29 01:00:15;;;;;;;7.77;7.12;;;;;;;22.78;67.80;100789.56;457256;116;922619;-75
2022/06/29 01:01:18;;;;;;;7.47;6.88;;;;;;;22.79;67.78;100795.96;457306;115;923044;-75
2022/06/29 01:02:24;;;;;;;7.74;7.11;;;;;;;22.79;67.67;100801.52;457225;115;930544;-75
2022/06/29 01:03:27;;;;;;;7.12;6.42;;;;;;;22.79;67.52;100798.74;457225;116;922620;-75
2022/06/29 01:04:30;;;;;;;7.78;7.08;;;;;;;22.78;67.47;100795.12;457406;115;923153;-75
2022/06/29 01:05:34;;;;;;;8.07;6.69;;;;;;;22.78;67.45;100800.69;457416;116;922573;-75
2022/06/29 01:06:37;;;;;;;7.69;7.19;;;;;;;22.77;67.37;100796.25;457334;115;922725;-75
2022/06/29 01:07:41;;;;;;;7.80;6.83;;;;;;;22.77;67.28;100795.44;457240;116;930535;-75
2022/06/29 01:08:44;;;;;;;6.75;6.18;;;;;;;22.77;67.14;100804.59;457304;116;930648;-74
2022/06/29 01:09:47;;;;;;;6.63;6.11;;;;;;;22.78;67.11;100799.86;457398;115;922566;-75
2022/06/29 01:10:50;;;;;;;7.09;6.44;;;;;;;22.77;67.16;100799.02;457427;115;923082;-75
2022/06/29 01:11:53;;;;;;;7.92;6.83;;;;;;;22.78;67.15;100800.69;457423;116;922568;-74
2022/06/29 01:12:56;;;;;;;7.13;6.53;;;;;;;22.77;67.06;100793.46;457383;116;922553;-74
2022/06/29 01:14:00;;;;;;;9.26;6.60;;;;;;;22.76;66.92;100794.61;457432;115;922561;-75
2022/06/29 01:15:03;;;;;;;7.10;6.52;;;;;;;22.76;66.82;100800.17;457366;116;922559;-79
2022/06/29 01:16:06;;;;;;;7.38;6.54;;;;;;;22.76;66.76;100797.39;457316;116;922831;-76
2022/06/29 01:17:11;;;;;;;10.55;6.61;;;;;;;22.75;66.81;100798.51;457369;116;930556;-75
2022/06/29 01:18:14;;;;;;;6.88;6.28;;;;;;;22.75;66.85;100797.67;457263;115;922586;-75
2022/06/29 01:19:17;;;;;;;8.04;5.97;;;;;;;22.74;66.87;100799.62;457358;115;923013;-75
2022/06/29 01:20:22;;;;;;;6.97;5.80;;;;;;;22.74;66.95;100801.56;457233;116;922642;-75
2022/06/29 01:21:28;;;;;;;7.03;6.42;;;;;;;22.74;67.03;100796.01;457320;115;923171;-76
2022/06/29 01:22:31;;;;;;;6.95;6.27;;;;;;;22.74;66.98;100804.34;457183;116;922674;-76
2022/06/29 01:23:35;;;;;;;8.14;6.67;;;;;;;22.72;67.05;100801.02;457407;115;922923;-76
2022/06/29 01:24:38;;;;;;;6.76;6.15;;;;;;;22.72;67.00;100801.02;457411;115;922594;-76
2022/06/29 01:25:41;;;;;;;6.93;6.25;;;;;;;22.70;67.10;100812.41;457325;116;922981;-76
2022/06/29 01:26:44;;;;;;;7.00;6.36;;;;;;;22.70;67.19;100806.02;457408;115;922736;-76
2022/06/29 01:27:47;;;;;;;6.73;5.89;;;;;;;22.69;67.25;100810.75;457388;115;922538;-75
2022/06/29 01:28:50;;;;;;;6.95;6.00;;;;;;;22.67;66.94;100810.20;457404;115;922632;-75
2022/06/29 01:29:53;;;;;;;7.05;5.95;;;;;;;22.66;66.49;100805.75;455459;115;922734;-75
2022/06/29 01:30:56;;;;;;;6.38;5.54;;;;;;;22.66;66.32;100804.95;457434;116;922535;-75
2022/06/29 01:32:00;;;;;;;6.96;5.65;;;;;;;22.65;66.24;100806.06;457376;115;922595;-75
2022/06/29 01:33:03;;;;;;;6.23;5.61;;;;;;;22.65;66.31;100803.28;457431;115;922903;-75
2022/06/29 01:34:06;;;;;;;7.31;5.61;;;;;;;22.65;66.34;100806.89;457496;115;922599;-75
2022/06/29 01:35:11;;;;;;;6.23;5.35;;;;;;;22.65;66.31;100803.28;457472;116;923386;-76
2022/06/29 01:36:17;;;;;;;6.30;5.69;;;;;;;22.64;66.18;100805.23;457285;116;923037;-75
2022/06/29 01:37:20;;;;;;;6.14;5.28;;;;;;;22.63;66.24;100800.78;457285;116;922540;-75
2022/06/29 01:38:23;;;;;;;6.37;5.83;;;;;;;22.63;66.33;100803.56;457507;116;923063;-75
2022/06/29 01:39:28;;;;;;;5.54;5.04;;;;;;;22.63;66.36;100808.29;457497;116;922666;-74
2022/06/29 01:40:32;;;;;;;6.21;5.22;;;;;;;22.63;66.26;100811.91;457306;116;922614;-75
2022/06/29 01:41:36;;;;;;;6.44;5.88;;;;;;;22.63;66.24;100811.07;457289;116;922595;-75
2022/06/29 01:42:39;;;;;;;6.19;5.54;;;;;;;22.63;66.21;100806.34;457445;116;930552;-75
2022/06/29 01:43:43;;;;;;;5.82;5.34;;;;;;;22.63;66.20;100813.85;457504;116;922498;-74
2022/06/29 01:44:46;;;;;;;7.81;6.47;;;;;;;22.63;66.17;100811.91;457510;116;922628;-75
2022/06/29 01:45:49;;;;;;;6.96;5.54;;;;;;;22.63;66.20;100817.46;457529;116;922544;-75
2022/06/29 01:46:52;;;;;;;6.31;5.54;;;;;;;22.63;66.23;100811.91;457540;116;922902;-75
2022/06/29 01:47:55;;;;;;;6.28;5.75;;;;;;;22.63;66.08;100816.63;457482;116;922536;-75
2022/06/29 01:48:58;;;;;;;5.74;5.29;;;;;;;22.63;66.12;100819.41;457453;116;923109;-75
2022/06/29 01:50:01;;;;;;;6.09;5.44;;;;;;;22.63;66.09;100817.46;457487;116;922680;-75
2022/06/29 01:51:04;;;;;;;5.59;5.03;;;;;;;22.63;66.17;100823.02;457485;116;922567;-75
2022/06/29 01:52:07;;;;;;;6.56;5.93;;;;;;;22.63;66.25;100825.80;457536;116;923184;-75
2022/06/29 01:53:10;;;;;;;6.85;4.84;;;;;;;22.63;66.21;100825.80;457511;116;923117;-75
2022/06/29 01:54:13;;;;;;;6.43;5.69;;;;;;;22.62;66.25;100821.36;457504;116;922529;-76
2022/06/29 01:55:17;;;;;;;6.94;5.39;;;;;;;22.62;66.23;100829.70;457506;116;922791;-75
2022/06/29 01:56:20;;;;;;;5.45;4.85;;;;;;;22.63;66.12;100824.97;457401;116;922573;-74
2022/06/29 01:57:23;;;;;;;5.89;5.44;;;;;;;22.62;66.19;100826.08;457444;116;923158;-75
2022/06/29 01:58:26;;;;;;;7.21;4.88;;;;;;;22.61;66.28;100825.25;457508;116;922468;-75
2022/06/29 01:59:29;;;;;;;5.71;5.23;;;;;;;22.62;66.31;100828.86;457460;115;922634;-75
2022/06/29 02:00:33;;;;;;;7.68;5.12;;;;;;;22.61;66.23;100827.20;457348;115;922728;-76
2022/06/29 02:01:37;;;;;;;6.89;5.41;;;;;;;22.59;66.27;100821.95;457439;116;930563;-76
2022/06/29 02:02:40;;;;;;;6.17;5.56;;;;;;;22.59;66.19;100821.11;457422;115;922625;-75
2022/06/29 02:03:44;;;;;;;6.14;5.49;;;;;;;22.59;66.26;100826.67;457537;116;922571;-76
2022/06/29 02:04:47;;;;;;;8.58;5.69;;;;;;;22.59;66.36;100827.50;457433;115;923163;-76
2022/06/29 02:05:50;;;;;;;7.50;5.72;;;;;;;22.61;66.12;100832.75;457553;115;923017;-76
2022/06/29 02:06:53;;;;;;;6.37;5.77;;;;;;;22.60;66.04;100828.34;457559;115;923047;-76
2022/06/29 02:07:56;;;;;;;5.52;4.67;;;;;;;22.60;65.94;100828.34;457532;116;922983;-75
2022/06/29 02:08:59;;;;;;;6.49;5.41;;;;;;;22.60;65.87;100831.12;457509;116;923043;-75
2022/06/29 02:10:03;;;;;;;7.73;4.87;;;;;;;22.60;65.71;100829.17;457556;116;922690;-75
2022/06/29 02:11:06;;;;;;;6.53;5.59;;;;;;;22.60;65.68;100831.95;457454;116;922540;-75
2022/06/29 02:12:09;;;;;;;5.39;4.69;;;;;;;22.60;65.62;100834.73;457535;116;922626;-76
2022/06/29 02:13:12;;;;;;;5.32;4.78;;;;;;;22.60;65.58;100839.45;457492;115;923009;-75
2022/06/29 02:14:15;;;;;;;7.92;5.29;;;;;;;22.59;65.63;100837.79;457473;115;922840;-75
2022/06/29 02:15:18;;;;;;;6.34;5.29;;;;;;;22.59;65.70;100835.84;457505;116;922774;-76
2022/06/29 02:16:21;;;;;;;6.37;5.16;;;;;;;22.59;65.56;100838.62;457488;115;922594;-77
2022/06/29 02:17:24;;;;;;;8.63;5.20;;;;;;;22.58;65.40;100836.95;457431;115;922572;-76
2022/06/29 02:18:27;;;;;;;5.96;4.83;;;;;;;22.58;65.52;100828.62;457513;116;922669;-75
2022/06/29 02:19:30;;;;;;;5.71;5.11;;;;;;;22.59;65.49;100833.06;457507;115;922549;-75
2022/06/29 02:20:33;;;;;;;5.37;4.84;;;;;;;22.57;65.27;100828.90;457530;116;922492;-75
2022/06/29 02:21:36;;;;;;;6.72;4.52;;;;;;;22.58;65.04;100825.00;457517;115;922595;-75
2022/06/29 02:22:40;;;;;;;5.04;4.62;;;;;;;22.57;64.78;100823.34;457508;115;923164;-75
2022/06/29 02:23:44;;;;;;;5.19;4.63;;;;;;;22.57;64.77;100834.45;457488;115;922648;-76
2022/06/29 02:24:47;;;;;;;6.45;4.71;;;;;;;22.56;64.75;100825.28;457274;115;923122;-75
2022/06/29 02:25:50;;;;;;;5.39;4.89;;;;;;;22.59;64.76;100827.50;457437;116;930567;-75
2022/06/29 02:26:54;;;;;;;5.46;4.93;;;;;;;22.59;64.80;100830.28;457500;115;922614;-75
2022/06/29 02:27:57;;;;;;;9.11;4.99;;;;;;;22.59;64.85;100838.62;457469;116;923144;-75
2022/06/29 02:28:59;;;;;;;7.85;5.44;;;;;;;22.59;64.82;100833.06;457482;115;922529;-76
2022/06/29 02:30:03;;;;;;;7.04;4.97;;;;;;;22.59;64.72;100835.02;456055;116;922620;-75
2022/06/29 02:35:10;;;;;;;5.60;5.08;;;;;;;22.60;64.07;100836.67;458828;115;922554;-75
2022/06/29 02:36:13;;;;;;;7.14;4.85;;;;;;;22.58;63.77;100839.73;458978;115;922620;-75
2022/06/29 02:37:16;;;;;;;5.76;5.26;;;;;;;22.58;63.67;100836.95;459013;115;922631;-75
2022/06/29 02:38:19;;;;;;;5.56;4.99;;;;;;;22.59;63.48;100837.79;458969;115;922544;-74
2022/06/29 02:39:23;;;;;;;7.55;5.01;;;;;;;22.58;63.44;100847.23;458934;115;922614;-75
2022/06/29 02:40:27;;;;;;;6.25;5.02;;;;;;;22.59;63.67;100841.41;458766;115;922591;-75
2022/06/29 02:41:30;;;;;;;5.72;5.23;;;;;;;22.61;63.50;100843.87;458981;115;922839;-75
2022/06/29 02:42:33;;;;;;;5.87;4.85;;;;;;;22.61;63.47;100841.09;458920;115;922493;-76
2022/06/29 02:43:39;;;;;;;4.95;4.43;;;;;;;22.61;63.08;100841.09;461294;113;922638;-75
2022/06/29 02:44:42;;;;;;;5.90;4.72;;;;;;;22.60;62.88;100840.29;458886;115;923078;-75
2022/06/29 02:45:45;;;;;;;5.71;4.84;;;;;;;22.60;62.88;100840.29;458910;115;930514;-76
2022/06/29 02:46:48;;;;;;;8.52;5.23;;;;;;;22.61;63.04;100839.14;458972;115;922548;-75
2022/06/29 02:47:51;;;;;;;5.66;5.03;;;;;;;22.62;63.19;100835.25;458948;115;922565;-75
2022/06/29 02:48:54;;;;;;;17.49;4.97;;;;;;;22.62;63.28;100835.25;458961;115;922965;-75
2022/06/29 02:49:57;;;;;;;5.49;4.73;;;;;;;22.62;63.13;100835.25;459031;115;923090;-76
2022/06/29 02:51:00;;;;;;;5.83;4.69;;;;;;;22.64;63.25;100838.58;458991;115;922425;-75
2022/06/29 02:52:03;;;;;;;4.78;4.38;;;;;;;22.65;63.32;100847.75;458962;115;923310;-75
2022/06/29 02:53:06;;;;;;;5.02;4.62;;;;;;;22.64;63.46;100844.14;458935;115;922760;-75
2022/06/29 02:54:09;;;;;;;4.49;4.15;;;;;;;22.64;63.46;100844.14;458958;115;922559;-74
2022/06/29 02:55:12;;;;;;;4.85;4.45;;;;;;;22.65;63.00;100840.25;459019;115;922675;-75
2022/06/29 02:56:16;;;;;;;5.16;4.64;;;;;;;22.65;62.99;100844.98;458899;115;922529;-74
2022/06/29 02:57:20;;;;;;;7.64;4.66;;;;;;;22.66;62.86;100841.08;458900;115;931050;-74
2022/06/29 02:58:23;;;;;;;4.56;4.09;;;;;;;22.65;62.78;100843.03;458561;115;922577;-75
2022/06/29 02:59:26;;;;;;;4.56;4.16;;;;;;;22.65;62.67;100854.15;456576;116;922689;-75
2022/06/29 03:00:29;;;;;;;4.63;4.24;;;;;;;22.65;62.72;100845.81;456603;115;922624;-75
2022/06/29 03:01:32;;;;;;;5.19;4.31;;;;;;;22.66;62.64;100847.45;456616;115;923163;-77
2022/06/29 03:02:35;;;;;;;4.76;4.31;;;;;;;22.67;62.88;100849.11;456603;115;922474;-76
2022/06/29 03:03:38;;;;;;;6.11;3.78;;;;;;;22.70;63.02;100848.55;456567;115;922571;-76
2022/06/29 03:04:41;;;;;;;6.59;4.34;;;;;;;22.70;62.98;100848.55;456551;115;922540;-76
2022/06/29 03:05:44;;;;;;;4.72;4.34;;;;;;;22.71;62.79;100853.03;456586;115;922610;-76
2022/06/29 03:06:47;;;;;;;4.60;4.20;;;;;;;22.72;62.73;100848.27;456598;116;922853;-75
2022/06/29 03:07:50;;;;;;;4.29;3.79;;;;;;;22.74;62.76;100851.61;456602;115;922561;-76
2022/06/29 03:08:53;;;;;;;6.14;4.01;;;;;;;22.75;62.60;100856.89;456566;116;922643;-76
2022/06/29 03:09:56;;;;;;;5.11;4.01;;;;;;;22.76;62.50;100854.94;456556;115;922565;-77
2022/06/29 03:11:00;;;;;;;4.12;3.82;;;;;;;22.76;62.22;100850.21;456575;115;922494;-76
2022/06/29 03:12:03;;;;;;;4.80;4.38;;;;;;;22.77;61.89;100851.84;456605;115;922632;-76
2022/06/29 03:13:06;;;;;;;5.30;4.16;;;;;;;22.78;61.79;100852.68;456420;116;922495;-76
2022/06/29 03:14:09;;;;;;;4.79;4.31;;;;;;;22.79;61.68;100854.34;456558;115;924053;-75
2022/06/29 03:15:12;;;;;;;4.56;4.12;;;;;;;22.80;61.59;100850.45;456618;115;922731;-76
2022/06/29 03:16:16;;;;;;;4.48;3.98;;;;;;;22.80;61.41;100859.63;456572;115;922791;-75
2022/06/29 03:17:19;;;;;;;4.82;4.15;;;;;;;22.79;61.32;100857.96;456509;115;922585;-75
2022/06/29 03:18:22;;;;;;;6.74;4.08;;;;;;;22.81;61.36;100863.24;456576;115;922601;-75
2022/06/29 03:19:25;;;;;;;5.14;3.86;;;;;;;22.81;61.33;100857.68;456548;115;923095;-76
2022/06/29 03:20:29;;;;;;;5.74;3.99;;;;;;;22.82;61.36;100859.34;456471;116;922980;-76
2022/06/29 03:21:32;;;;;;;5.37;4.32;;;;;;;22.82;61.39;100862.92;456582;115;923033;-76
2022/06/29 03:22:35;;;;;;;4.45;4.06;;;;;;;22.83;61.32;100861.81;456585;116;923018;-75
2022/06/29 03:23:38;;;;;;;4.47;3.82;;;;;;;22.85;61.25;100855.97;456548;115;922618;-77
2022/06/29 03:24:41;;;;;;;5.20;4.52;;;;;;;22.85;61.38;100867.92;456570;116;922678;-75
2022/06/29 03:25:45;;;;;;;4.65;4.25;;;;;;;22.88;61.28;100868.48;456558;116;922745;-74
2022/06/29 03:26:48;;;;;;;5.50;4.16;;;;;;;22.88;61.00;100860.14;456447;116;922607;-74
2022/06/29 03:27:51;;;;;;;6.04;4.70;;;;;;;22.88;61.00;100861.77;456550;115;922655;-75
2022/06/29 03:28:54;;;;;;;5.22;4.42;;;;;;;22.91;60.86;100862.33;456567;115;923036;-75
2022/06/29 03:29:57;;;;;;;6.78;4.46;;;;;;;22.92;60.84;100859.27;454799;116;922603;-76
2022/06/29 03:31:00;;;;;;;4.96;4.45;;;;;;;22.93;60.65;100865.66;456576;115;922597;-76
2022/06/29 03:32:04;;;;;;;5.29;4.37;;;;;;;22.93;60.50;100860.09;456567;116;922542;-75
2022/06/29 03:33:07;;;;;;;6.46;4.44;;;;;;;22.94;60.42;100859.78;456623;115;923084;-75
2022/06/29 03:34:10;;;;;;;7.09;5.15;;;;;;;22.96;60.32;100856.72;459960;115;922540;-76
2022/06/29 03:35:13;;;;;;;7.15;4.84;;;;;;;22.96;60.08;100862.28;461682;115;922573;-76
2022/06/29 03:36:17;;;;;;;5.74;4.56;;;;;;;22.98;59.94;100862.83;461602;114;922567;-76
2022/06/29 03:37:20;;;;;;;4.79;4.01;;;;;;;22.98;59.79;100866.45;461668;115;922600;-75
2022/06/29 03:38:23;;;;;;;4.89;4.47;;;;;;;22.99;59.73;100868.08;461687;115;923019;-75
2022/06/29 03:39:26;;;;;;;5.54;5.03;;;;;;;23.01;59.69;100865.85;461694;115;922646;-76
2022/06/29 03:40:29;;;;;;;4.51;4.16;;;;;;;23.02;59.56;100870.30;452584;116;923127;-75
2022/06/29 03:41:33;;;;;;;5.24;4.73;;;;;;;23.03;59.53;100868.35;452967;115;922841;-76
2022/06/29 03:42:36;;;;;;;8.08;4.97;;;;;;;23.03;59.35;100863.63;461631;115;922987;-75
2022/06/29 03:43:39;;;;;;;5.08;4.59;;;;;;;23.03;59.21;100871.97;461620;115;922597;-75
2022/06/29 03:44:42;;;;;;;5.78;4.42;;;;;;;23.05;59.15;100871.66;461620;115;922625;-74
2022/06/29 03:45:44;;;;;;;5.26;4.20;;;;;;;23.05;59.10;100880.00;461662;115;922557;-75
2022/06/29 03:46:48;;;;;;;6.17;4.86;;;;;;;23.06;58.89;100870.54;461623;114;922570;-75
2022/06/29 03:47:51;;;;;;;5.58;4.71;;;;;;;23.06;58.91;100871.37;461622;115;922642;-75
2022/06/29 03:48:54;;;;;;;6.32;4.68;;;;;;;23.07;58.90;100874.98;461628;115;922564;-75
2022/06/29 03:49:57;;;;;;;6.80;5.16;;;;;;;23.08;58.96;100871.09;461668;115;922553;-75
2022/06/29 03:51:00;;;;;;;5.29;4.81;;;;;;;23.09;58.86;100878.31;461619;115;922560;-75
2022/06/29 03:52:03;;;;;;;5.12;4.61;;;;;;;23.10;58.81;100878.00;461638;115;922480;-74
2022/06/29 03:53:07;;;;;;;6.73;4.86;;;;;;;23.11;58.76;100881.63;461558;115;922774;-75
2022/06/29 03:54:10;;;;;;;5.28;4.76;;;;;;;23.12;58.77;100877.72;461635;115;930556;-75
2022/06/29 03:55:13;;;;;;;5.47;4.98;;;;;;;23.12;58.76;100877.72;461667;115;923049;-75
2022/06/29 03:56:18;;;;;;;10.84;4.54;;;;;;;23.14;58.79;100878.27;461531;115;922561;-75
2022/06/29 03:57:21;;;;;;;5.39;4.78;;;;;;;23.15;58.77;100874.37;461650;115;922506;-76
2022/06/29 03:58:24;;;;;;;7.76;4.58;;;;;;;23.16;58.82;100876.02;460951;115;922514;-75
2022/06/29 03:59:27;;;;;;;9.94;4.63;;;;;;;23.17;58.76;100884.08;457354;115;923105;-75
2022/06/29 04:00:32;;;;;;;5.04;4.24;;;;;;;23.19;58.66;100875.45;457042;115;922596;-75
2022/06/29 04:01:36;;;;;;;5.33;4.20;;;;;;;23.20;58.66;100868.77;457237;116;930556;-75
2022/06/29 04:02:39;;;;;;;5.32;4.86;;;;;;;23.20;58.66;100880.73;457404;115;922895;-75
2022/06/29 04:03:42;;;;;;;5.96;5.15;;;;;;;23.23;58.62;100873.73;457387;115;922632;-75
2022/06/29 04:04:45;;;;;;;5.30;4.87;;;;;;;23.24;58.58;100875.40;457385;115;922756;-75
2022/06/29 04:05:48;;;;;;;5.56;5.06;;;;;;;23.25;58.59;100880.68;457405;115;922520;-75
2022/06/29 04:06:51;;;;;;;5.25;4.81;;;;;;;23.26;58.50;100875.95;457309;115;922543;-75
2022/06/29 04:07:54;;;;;;;5.17;4.76;;;;;;;23.27;58.36;100874.80;457325;116;930569;-75
2022/06/29 04:08:57;;;;;;;5.64;4.80;;;;;;;23.28;58.34;100879.25;457376;115;922670;-75
2022/06/29 04:10:01;;;;;;;6.76;5.07;;;;;;;23.29;58.35;100880.91;457400;115;922572;-76
2022/06/29 04:11:48;;;;;;;6.86;4.98;;;;;;;23.29;58.35;100880.91;457385;115;922525;-76
2022/06/29 04:12:11;;;;;;;5.66;5.06;;;;;;;23.30;58.28;100888.15;455302;116;922561;-75
2022/06/29 04:13:14;;;;;;;4.78;4.36;;;;;;;23.31;58.30;100887.03;457370;116;922783;-75
2022/06/29 04:14:19;;;;;;;5.04;4.59;;;;;;;23.32;58.60;100880.35;457571;115;923152;-76
2022/06/29 04:15:22;;;;;;;5.40;4.76;;;;;;;23.33;58.59;100886.72;457154;115;930523;-76
2022/06/29 04:16:25;;;;;;;4.69;4.30;;;;;;;23.36;58.63;100883.37;457649;115;930533;-76
2022/06/29 04:17:28;;;;;;;5.99;5.46;;;;;;;23.37;58.54;100874.73;457561;116;922637;-76
2022/06/29 04:18:31;;;;;;;7.32;4.71;;;;;;;23.38;58.52;100881.94;458281;115;922327;-75
2022/06/29 04:19:34;;;;;;;5.37;4.90;;;;;;;23.40;58.40;100881.65;457983;115;922498;-75
2022/06/29 04:21:59;;;;;;;9.61;5.73;;;;;;;23.42;58.33;100880.25;458023;116;922448;-75
2022/06/29 04:23:02;;;;;;;6.11;5.59;;;;;;;23.45;58.12;100878.81;458228;115;922257;-75
2022/06/29 04:24:06;;;;;;;6.12;5.54;;;;;;;23.46;58.10;100880.52;458179;115;922348;-75
2022/06/29 04:25:09;;;;;;;6.33;5.60;;;;;;;23.47;57.93;100883.02;458184;115;930174;-75
2022/06/29 04:26:13;;;;;;;8.01;6.23;;;;;;;23.47;57.93;100883.02;458153;115;930155;-76
2022/06/29 04:27:17;;;;;;;6.17;5.41;;;;;;;23.48;57.71;100873.55;458576;116;922711;-75
2022/06/29 04:28:20;;;;;;;7.00;5.94;;;;;;;23.50;57.72;100876.02;458416;115;922191;-75
2022/06/29 04:29:23;;;;;;;5.97;5.43;;;;;;;23.51;57.64;100889.64;458465;115;930149;-75
2022/06/29 04:30:28;;;;;;;6.54;5.97;;;;;;;23.53;57.56;100890.19;450297;117;922292;-75
2022/06/29 04:31:31;;;;;;;9.97;5.24;;;;;;;23.56;57.44;100888.77;450612;117;922137;-75
2022/06/29 04:32:34;;;;;;;6.09;5.56;;;;;;;23.59;57.32;100890.97;450636;117;922921;-75
2022/06/29 04:33:37;;;;;;;6.39;5.86;;;;;;;23.59;57.32;100890.97;451318;114;922294;-75
2022/06/29 04:34:40;;;;;;;7.02;5.43;;;;;;;23.61;57.08;100883.97;458615;115;922160;-76
2022/06/29 04:35:43;;;;;;;6.79;6.12;;;;;;;23.63;57.14;100887.30;458614;115;922152;-77
2022/06/29 04:36:46;;;;;;;7.32;5.75;;;;;;;23.66;56.96;100885.87;458466;115;922517;-78
2022/06/29 04:37:49;;;;;;;6.42;5.97;;;;;;;23.67;56.87;100888.36;458476;116;922415;-77
2022/06/29 04:38:53;;;;;;;5.88;5.12;;;;;;;23.68;56.80;100887.24;458510;115;922361;-78
2022/06/29 04:39:56;;;;;;;7.66;6.88;;;;;;;23.71;56.69;100894.16;458451;115;922489;-77
2022/06/29 04:41:00;;;;;;;7.47;6.32;;;;;;;23.73;56.64;100891.92;458449;116;922114;-77
2022/06/29 04:42:04;;;;;;;8.38;6.69;;;;;;;23.74;56.58;100889.97;458590;116;922349;-76
2022/06/29 04:43:07;;;;;;;8.04;6.53;;;;;;;23.76;56.52;100893.30;458446;115;922534;-77
2022/06/29 04:44:10;;;;;;;11.83;6.66;;;;;;;23.77;56.53;100890.20;458423;115;930312;-76
2022/06/29 04:46:34;;;;;;;7.11;6.41;;;;;;;23.80;56.37;100886.02;458303;116;922387;-77
2022/06/29 04:47:37;;;;;;;7.81;6.62;;;;;;;23.81;56.46;100884.89;458501;115;922375;-76
2022/06/29 04:48:41;;;;;;;10.89;6.40;;;;;;;23.82;56.52;100875.42;458463;116;922723;-76
2022/06/29 04:49:44;;;;;;;7.34;6.30;;;;;;;23.84;56.62;100875.93;458343;115;922238;-75
2022/06/29 04:50:47;;;;;;;7.12;6.39;;;;;;;23.84;56.60;100885.13;458470;115;922306;-76
2022/06/29 04:51:50;;;;;;;7.29;6.62;;;;;;;23.86;56.69;100882.05;458453;115;922688;-75
2022/06/29 04:52:53;;;;;;;7.04;6.31;;;;;;;23.87;56.79;100887.30;458528;115;922394;-76
2022/06/29 04:53:57;;;;;;;7.58;6.93;;;;;;;23.89;56.79;100889.80;458467;115;922711;-76
2022/06/29 04:55:00;;;;;;;10.70;7.16;;;;;;;23.91;56.78;100898.70;458421;116;922329;-77
2022/06/29 04:56:04;;;;;;;7.37;6.37;;;;;;;23.93;56.78;100896.43;458493;115;922792;-76
2022/06/29 04:57:08;;;;;;;8.58;6.96;;;;;;;23.95;56.89;100894.19;458444;116;922420;-76
2022/06/29 04:58:11;;;;;;;8.49;6.92;;;;;;;23.96;57.01;100899.47;458418;116;922905;-76